sensor_id;sensor_type;location;lat;lon;timestamp;pressure;altitude;pressure_sealevel;temperature;humidity
20027;BME280;10174;42.688;23.344;2023-07-24T00:02:15;95537.41;;;19.98;77.42
20027;BME280;10174;42.688;23.344;2023-07-24T00:04:40;95536.91;;;19.96;77.88
20027;BME280;10174;42.688;23.344;2023-07-24T00:07:06;95526.47;;;19.89;78.07
20027;BME280;10174;42.688;23.344;2023-07-24T00:09:31;95517.03;;;19.87;77.95
20027;BME280;10174;42.688;23.344;2023-07-24T00:11:57;95531.94;;;19.98;78.44
20027;BME280;10174;42.688;23.344;2023-07-24T00:14:22;95418.53;;;19.13;78.89
20027;BME280;10174;42.688;23.344;2023-07-24T00:16:48;95436.88;;;19.30;79.19
20027;BME280;10174;42.688;23.344;2023-07-24T00:19:13;95538.19;;;19.90;79.45
20027;BME280;10174;42.688;23.344;2023-07-24T00:21:38;95536.06;;;19.78;80.21
20027;BME280;10174;42.688;23.344;2023-07-24T00:24:04;95531.22;;;19.75;80.55
20027;BME280;10174;42.688;23.344;2023-07-24T00:26:29;95510.44;;;19.48;81.21
20027;BME280;10174;42.688;23.344;2023-07-24T00:28:55;95522.50;;;19.55;81.51
20027;BME280;10174;42.688;23.344;2023-07-24T00:31:20;95549.91;;;19.59;81.78
20027;BME280;10174;42.688;23.344;2023-07-24T00:33:46;95538.69;;;19.52;82.67
20027;BME280;10174;42.688;23.344;2023-07-24T00:36:11;95516.38;;;19.41;83.11
20027;BME280;10174;42.688;23.344;2023-07-24T00:38:36;95438.63;;;18.95;82.87
20027;BME280;10174;42.688;23.344;2023-07-24T00:41:02;95524.69;;;19.45;83.42
20027;BME280;10174;42.688;23.344;2023-07-24T00:43:27;95533.72;;;19.54;82.80
20027;BME280;10174;42.688;23.344;2023-07-24T00:45:53;95522.34;;;19.52;82.95
20027;BME280;10174;42.688;23.344;2023-07-24T00:48:19;95538.16;;;19.50;83.08
20027;BME280;10174;42.688;23.344;2023-07-24T00:50:45;95528.41;;;19.49;83.40
20027;BME280;10174;42.688;23.344;2023-07-24T00:53:11;95526.00;;;19.47;83.55
20027;BME280;10174;42.688;23.344;2023-07-24T00:55:38;95525.19;;;19.47;83.58
20027;BME280;10174;42.688;23.344;2023-07-24T00:58:04;95525.81;;;19.44;83.27
20027;BME280;10174;42.688;23.344;2023-07-24T01:00:30;95524.34;;;19.37;83.89
20027;BME280;10174;42.688;23.344;2023-07-24T01:02:56;95517.44;;;19.31;83.86
20027;BME280;10174;42.688;23.344;2023-07-24T01:05:23;95500.75;;;19.24;83.69
20027;BME280;10174;42.688;23.344;2023-07-24T01:07:50;95523.09;;;19.44;83.89
20027;BME280;10174;42.688;23.344;2023-07-24T01:10:16;95516.81;;;19.34;84.14
20027;BME280;10174;42.688;23.344;2023-07-24T01:15:33;95510.72;;;19.37;84.12
20027;BME280;10174;42.688;23.344;2023-07-24T01:18:03;95504.81;;;19.35;83.45
20027;BME280;10174;42.688;23.344;2023-07-24T01:20:30;95503.59;;;19.19;83.96
20027;BME280;10174;42.688;23.344;2023-07-24T01:25:56;95518.22;;;19.23;84.74
20027;BME280;10174;42.688;23.344;2023-07-24T01:28:21;95494.59;;;19.10;84.77
20027;BME280;10174;42.688;23.344;2023-07-24T01:30:47;95500.03;;;19.10;85.00
20027;BME280;10174;42.688;23.344;2023-07-24T01:33:12;95503.13;;;19.17;84.91
20027;BME280;10174;42.688;23.344;2023-07-24T01:35:40;95501.34;;;19.12;84.67
20027;BME280;10174;42.688;23.344;2023-07-24T01:38:09;95509.03;;;19.19;84.65
20027;BME280;10174;42.688;23.344;2023-07-24T01:40:35;95491.38;;;19.08;84.76
20027;BME280;10174;42.688;23.344;2023-07-24T01:43:00;95517.72;;;19.21;84.60
20027;BME280;10174;42.688;23.344;2023-07-24T01:45:26;95531.81;;;19.23;84.12
20027;BME280;10174;42.688;23.344;2023-07-24T01:47:51;95543.50;;;19.23;84.23
20027;BME280;10174;42.688;23.344;2023-07-24T01:50:17;95437.13;;;18.57;84.53
20027;BME280;10174;42.688;23.344;2023-07-24T01:52:42;95533.03;;;19.08;85.00
20027;BME280;10174;42.688;23.344;2023-07-24T01:55:09;95490.66;;;18.93;84.89
20027;BME280;10174;42.688;23.344;2023-07-24T01:57:35;95516.19;;;19.06;85.15
20027;BME280;10174;42.688;23.344;2023-07-24T02:00:00;95528.25;;;19.14;85.22
20027;BME280;10174;42.688;23.344;2023-07-24T02:02:25;95518.41;;;19.04;84.69
20027;BME280;10174;42.688;23.344;2023-07-24T02:04:51;95528.88;;;19.11;84.29
20027;BME280;10174;42.688;23.344;2023-07-24T02:07:16;95521.34;;;19.08;84.37
20027;BME280;10174;42.688;23.344;2023-07-24T02:09:41;95530.28;;;19.08;84.44
20027;BME280;10174;42.688;23.344;2023-07-24T02:12:07;95524.22;;;19.11;84.28
20027;BME280;10174;42.688;23.344;2023-07-24T02:14:32;95501.28;;;18.81;85.04
20027;BME280;10174;42.688;23.344;2023-07-24T02:16:57;95422.06;;;18.28;85.37
20027;BME280;10174;42.688;23.344;2023-07-24T02:19:23;95499.31;;;18.73;85.59
20027;BME280;10174;42.688;23.344;2023-07-24T02:21:48;95465.34;;;18.39;86.01
20027;BME280;10174;42.688;23.344;2023-07-24T02:24:13;95517.38;;;18.68;86.35
20027;BME280;10174;42.688;23.344;2023-07-24T02:26:39;95495.22;;;18.61;86.64
20027;BME280;10174;42.688;23.344;2023-07-24T02:29:04;95512.31;;;18.76;86.39
20027;BME280;10174;42.688;23.344;2023-07-24T02:31:30;95455.88;;;18.36;86.17
20027;BME280;10174;42.688;23.344;2023-07-24T02:33:55;95491.66;;;18.52;86.18
20027;BME280;10174;42.688;23.344;2023-07-24T02:36:20;95422.06;;;18.06;86.40
20027;BME280;10174;42.688;23.344;2023-07-24T02:38:46;95512.69;;;18.60;86.75
20027;BME280;10174;42.688;23.344;2023-07-24T02:41:11;95493.72;;;18.46;86.92
20027;BME280;10174;42.688;23.344;2023-07-24T02:43:36;95515.41;;;18.60;87.34
20027;BME280;10174;42.688;23.344;2023-07-24T02:46:02;95520.03;;;18.60;87.38
20027;BME280;10174;42.688;23.344;2023-07-24T02:48:28;95523.06;;;18.58;87.13
20027;BME280;10174;42.688;23.344;2023-07-24T02:50:54;95470.41;;;18.31;86.82
20027;BME280;10174;42.688;23.344;2023-07-24T02:53:19;95508.78;;;18.52;87.16
20027;BME280;10174;42.688;23.344;2023-07-24T02:55:45;95515.03;;;18.53;87.27
20027;BME280;10174;42.688;23.344;2023-07-24T02:58:14;95489.50;;;18.40;87.20
20027;BME280;10174;42.688;23.344;2023-07-24T03:00:39;95447.31;;;18.20;87.07
20027;BME280;10174;42.688;23.344;2023-07-24T03:03:05;95519.06;;;18.56;87.47
20027;BME280;10174;42.688;23.344;2023-07-24T03:05:31;95413.97;;;17.92;87.32
20027;BME280;10174;42.688;23.344;2023-07-24T03:07:56;95504.63;;;18.55;87.23
20027;BME280;10174;42.688;23.344;2023-07-24T03:10:23;95483.88;;;18.37;87.15
20027;BME280;10174;42.688;23.344;2023-07-24T03:12:48;95501.56;;;18.48;87.75
20027;BME280;10174;42.688;23.344;2023-07-24T03:15:14;95503.78;;;18.46;87.95
20027;BME280;10174;42.688;23.344;2023-07-24T03:17:39;95520.09;;;18.46;88.35
20027;BME280;10174;42.688;23.344;2023-07-24T03:20:18;95517.06;;;18.47;88.32
20027;BME280;10174;42.688;23.344;2023-07-24T03:22:44;95505.53;;;18.42;88.45
20027;BME280;10174;42.688;23.344;2023-07-24T03:25:10;95502.34;;;18.48;86.34
20027;BME280;10174;42.688;23.344;2023-07-24T03:27:35;95515.75;;;18.67;85.15
20027;BME280;10174;42.688;23.344;2023-07-24T03:30:01;95515.16;;;18.71;84.89
20027;BME280;10174;42.688;23.344;2023-07-24T03:32:26;95520.00;;;18.74;84.53
20027;BME280;10174;42.688;23.344;2023-07-24T03:34:51;95494.63;;;18.64;84.32
20027;BME280;10174;42.688;23.344;2023-07-24T03:37:17;95518.75;;;18.80;84.06
20027;BME280;10174;42.688;23.344;2023-07-24T03:39:43;95485.50;;;18.60;83.87
20027;BME280;10174;42.688;23.344;2023-07-24T03:42:10;95510.91;;;18.78;83.60
20027;BME280;10174;42.688;23.344;2023-07-24T03:44:38;95416.88;;;18.18;83.83
20027;BME280;10174;42.688;23.344;2023-07-24T03:47:03;95509.09;;;18.74;83.85
20027;BME280;10174;42.688;23.344;2023-07-24T03:49:29;95522.34;;;18.89;83.65
20027;BME280;10174;42.688;23.344;2023-07-24T03:51:54;95430.00;;;18.39;83.28
20027;BME280;10174;42.688;23.344;2023-07-24T03:54:19;95448.75;;;18.49;83.12
20027;BME280;10174;42.688;23.344;2023-07-24T03:56:45;95531.50;;;18.93;83.02
20027;BME280;10174;42.688;23.344;2023-07-24T03:59:10;95509.09;;;18.74;83.37
20027;BME280;10174;42.688;23.344;2023-07-24T04:01:36;95532.72;;;18.87;83.55
20027;BME280;10174;42.688;23.344;2023-07-24T04:04:01;95456.91;;;18.49;83.27
20027;BME280;10174;42.688;23.344;2023-07-24T04:06:27;95471.06;;;18.60;83.38
20027;BME280;10174;42.688;23.344;2023-07-24T04:08:52;95529.75;;;18.97;83.70
20027;BME280;10174;42.688;23.344;2023-07-24T04:11:18;95529.81;;;19.06;83.44
20027;BME280;10174;42.688;23.344;2023-07-24T04:13:43;95539.31;;;19.17;83.26
20027;BME280;10174;42.688;23.344;2023-07-24T04:16:08;95540.47;;;19.25;82.77
20027;BME280;10174;42.688;23.344;2023-07-24T04:18:34;95522.72;;;19.28;83.79
20027;BME280;10174;42.688;23.344;2023-07-24T04:20:59;95432.28;;;18.77;83.78
20027;BME280;10174;42.688;23.344;2023-07-24T04:23:24;95538.16;;;19.41;83.36
20027;BME280;10174;42.688;23.344;2023-07-24T04:25:50;95541.81;;;19.36;83.99
20027;BME280;10174;42.688;23.344;2023-07-24T04:28:15;95529.16;;;19.32;84.09
20027;BME280;10174;42.688;23.344;2023-07-24T04:30:41;95548.75;;;19.43;83.77
20027;BME280;10174;42.688;23.344;2023-07-24T04:33:06;95527.22;;;19.32;83.05
20027;BME280;10174;42.688;23.344;2023-07-24T04:35:32;95551.31;;;19.48;81.42
20027;BME280;10174;42.688;23.344;2023-07-24T04:37:57;95546.88;;;19.61;79.75
20027;BME280;10174;42.688;23.344;2023-07-24T04:40:23;95537.59;;;19.62;78.38
20027;BME280;10174;42.688;23.344;2023-07-24T04:42:49;95519.03;;;19.64;77.86
20027;BME280;10174;42.688;23.344;2023-07-24T04:45:14;95475.00;;;19.39;76.59
20027;BME280;10174;42.688;23.344;2023-07-24T04:47:39;95437.19;;;19.29;75.52
20027;BME280;10174;42.688;23.344;2023-07-24T04:50:05;95543.31;;;20.00;75.01
20027;BME280;10174;42.688;23.344;2023-07-24T04:52:31;95538.84;;;20.04;74.77
20027;BME280;10174;42.688;23.344;2023-07-24T04:54:56;95515.75;;;19.93;74.76
20027;BME280;10174;42.688;23.344;2023-07-24T04:57:21;95521.84;;;20.07;74.78
20027;BME280;10174;42.688;23.344;2023-07-24T04:59:47;95546.25;;;20.13;75.07
20027;BME280;10174;42.688;23.344;2023-07-24T05:02:12;95539.97;;;20.12;75.18
20027;BME280;10174;42.688;23.344;2023-07-24T05:04:38;95534.22;;;20.14;75.31
20027;BME280;10174;42.688;23.344;2023-07-24T05:07:03;95548.84;;;20.26;75.75
20027;BME280;10174;42.688;23.344;2023-07-24T05:09:29;95533.44;;;20.22;75.55
20027;BME280;10174;42.688;23.344;2023-07-24T05:11:54;95534.38;;;20.26;75.03
20027;BME280;10174;42.688;23.344;2023-07-24T05:14:19;95555.59;;;20.46;75.40
20027;BME280;10174;42.688;23.344;2023-07-24T05:16:45;95539.53;;;20.54;74.80
20027;BME280;10174;42.688;23.344;2023-07-24T05:19:10;95541.59;;;20.57;75.00
20027;BME280;10174;42.688;23.344;2023-07-24T05:21:35;95550.13;;;20.64;74.88
20027;BME280;10174;42.688;23.344;2023-07-24T05:24:01;95541.31;;;20.76;74.71
20027;BME280;10174;42.688;23.344;2023-07-24T05:26:26;95530.53;;;20.79;73.95
20027;BME280;10174;42.688;23.344;2023-07-24T05:28:52;95541.78;;;20.87;74.32
20027;BME280;10174;42.688;23.344;2023-07-24T05:31:18;95527.16;;;20.82;74.06
20027;BME280;10174;42.688;23.344;2023-07-24T05:33:43;95535.81;;;20.93;74.32
20027;BME280;10174;42.688;23.344;2023-07-24T05:36:09;95532.44;;;21.05;74.14
20027;BME280;10174;42.688;23.344;2023-07-24T05:38:34;95522.47;;;21.09;73.46
20027;BME280;10174;42.688;23.344;2023-07-24T05:41:02;95534.44;;;21.34;73.12
20027;BME280;10174;42.688;23.344;2023-07-24T05:43:28;95526.22;;;21.43;72.99
20027;BME280;10174;42.688;23.344;2023-07-24T05:45:55;95443.66;;;20.90;72.08
20027;BME280;10174;42.688;23.344;2023-07-24T05:48:21;95539.38;;;21.59;71.95
20027;BME280;10174;42.688;23.344;2023-07-24T05:50:47;95526.09;;;21.78;70.41
20027;BME280;10174;42.688;23.344;2023-07-24T05:53:15;95538.25;;;21.89;69.39
20027;BME280;10174;42.688;23.344;2023-07-24T05:55:41;95463.13;;;21.66;68.13
20027;BME280;10174;42.688;23.344;2023-07-24T05:58:07;95528.25;;;22.23;67.40
20027;BME280;10174;42.688;23.344;2023-07-24T06:00:33;95502.59;;;22.07;66.52
20027;BME280;10174;42.688;23.344;2023-07-24T06:02:58;95494.91;;;22.21;65.62
20027;BME280;10174;42.688;23.344;2023-07-24T06:05:23;95506.56;;;22.39;65.94
20027;BME280;10174;42.688;23.344;2023-07-24T06:07:49;95515.72;;;22.44;65.46
20027;BME280;10174;42.688;23.344;2023-07-24T06:10:14;95403.59;;;22.14;64.66
20027;BME280;10174;42.688;23.344;2023-07-24T06:12:40;95509.00;;;23.08;63.35
20027;BME280;10174;42.688;23.344;2023-07-24T06:15:06;95510.13;;;23.65;61.38
20027;BME280;10174;42.688;23.344;2023-07-24T06:17:31;95521.38;;;23.85;60.97
20027;BME280;10174;42.688;23.344;2023-07-24T06:19:57;95466.16;;;23.49;61.36
20027;BME280;10174;42.688;23.344;2023-07-24T06:22:22;95471.16;;;23.35;62.47
20027;BME280;10174;42.688;23.344;2023-07-24T06:24:48;95514.75;;;23.86;61.32
20027;BME280;10174;42.688;23.344;2023-07-24T06:27:13;95419.03;;;24.09;58.85
20027;BME280;10174;42.688;23.344;2023-07-24T06:29:39;95506.59;;;25.39;56.48
20027;BME280;10174;42.688;23.344;2023-07-24T06:32:04;95505.94;;;26.10;54.86
20027;BME280;10174;42.688;23.344;2023-07-24T06:34:30;95502.25;;;26.57;52.90
20027;BME280;10174;42.688;23.344;2023-07-24T06:36:55;95496.78;;;26.61;51.98
20027;BME280;10174;42.688;23.344;2023-07-24T06:39:21;95499.22;;;25.75;54.46
20027;BME280;10174;42.688;23.344;2023-07-24T06:41:46;95505.47;;;25.28;55.98
20027;BME280;10174;42.688;23.344;2023-07-24T06:44:12;95502.94;;;24.91;56.98
20027;BME280;10174;42.688;23.344;2023-07-24T06:46:37;95430.84;;;23.85;58.28
20027;BME280;10174;42.688;23.344;2023-07-24T06:49:03;95409.97;;;23.43;59.73
20027;BME280;10174;42.688;23.344;2023-07-24T06:51:28;95480.09;;;23.81;59.99
20027;BME280;10174;42.688;23.344;2023-07-24T06:53:54;95496.34;;;23.86;59.76
20027;BME280;10174;42.688;23.344;2023-07-24T06:56:19;95423.66;;;23.55;59.41
20027;BME280;10174;42.688;23.344;2023-07-24T06:58:45;95414.97;;;23.78;58.83
20027;BME280;10174;42.688;23.344;2023-07-24T07:01:10;95497.41;;;24.34;58.10
20027;BME280;10174;42.688;23.344;2023-07-24T07:03:35;95503.75;;;24.10;58.90
20027;BME280;10174;42.688;23.344;2023-07-24T07:06:01;95508.88;;;24.12;59.20
20027;BME280;10174;42.688;23.344;2023-07-24T07:08:28;95498.78;;;24.28;58.78
20027;BME280;10174;42.688;23.344;2023-07-24T07:10:57;95510.41;;;24.50;58.31
20027;BME280;10174;42.688;23.344;2023-07-24T07:13:22;95511.16;;;24.63;57.75
20027;BME280;10174;42.688;23.344;2023-07-24T07:15:48;95497.09;;;24.64;57.49
20027;BME280;10174;42.688;23.344;2023-07-24T07:18:13;95502.47;;;24.89;56.79
20027;BME280;10174;42.688;23.344;2023-07-24T07:20:45;95493.16;;;24.78;57.09
20027;BME280;10174;42.688;23.344;2023-07-24T07:23:10;95501.44;;;24.65;57.83
20027;BME280;10174;42.688;23.344;2023-07-24T07:25:35;95476.13;;;24.31;57.77
20027;BME280;10174;42.688;23.344;2023-07-24T07:28:01;95492.25;;;24.74;58.10
20027;BME280;10174;42.688;23.344;2023-07-24T07:30:26;95498.16;;;24.88;57.25
20027;BME280;10174;42.688;23.344;2023-07-24T07:32:51;95500.53;;;24.89;57.28
20027;BME280;10174;42.688;23.344;2023-07-24T07:35:17;95470.03;;;24.79;56.60
20027;BME280;10174;42.688;23.344;2023-07-24T07:37:42;95470.19;;;24.98;55.90
20027;BME280;10174;42.688;23.344;2023-07-24T07:40:08;95397.66;;;24.87;55.25
20027;BME280;10174;42.688;23.344;2023-07-24T07:42:33;95391.97;;;24.80;55.64
20027;BME280;10174;42.688;23.344;2023-07-24T07:44:59;95405.56;;;25.04;55.49
20027;BME280;10174;42.688;23.344;2023-07-24T07:47:24;95489.16;;;25.83;55.77
20027;BME280;10174;42.688;23.344;2023-07-24T07:49:51;95479.38;;;26.18;54.21
20027;BME280;10174;42.688;23.344;2023-07-24T07:52:16;95426.00;;;25.87;52.80
20027;BME280;10174;42.688;23.344;2023-07-24T07:54:46;95486.22;;;26.43;53.03
20027;BME280;10174;42.688;23.344;2023-07-24T07:57:12;95476.50;;;26.49;51.56
20027;BME280;10174;42.688;23.344;2023-07-24T07:59:37;95480.22;;;26.57;50.99
20027;BME280;10174;42.688;23.344;2023-07-24T08:02:02;95475.94;;;26.79;50.98
20027;BME280;10174;42.688;23.344;2023-07-24T08:04:28;95388.66;;;26.44;49.29
20027;BME280;10174;42.688;23.344;2023-07-24T08:06:53;95491.22;;;26.96;48.76
20027;BME280;10174;42.688;23.344;2023-07-24T08:09:19;95418.94;;;26.25;50.55
20027;BME280;10174;42.688;23.344;2023-07-24T08:11:47;95424.75;;;26.39;50.07
20027;BME280;10174;42.688;23.344;2023-07-24T08:14:12;95487.09;;;26.87;49.31
20027;BME280;10174;42.688;23.344;2023-07-24T08:16:37;95456.75;;;27.06;48.70
20027;BME280;10174;42.688;23.344;2023-07-24T08:19:03;95468.59;;;27.53;47.78
20027;BME280;10174;42.688;23.344;2023-07-24T08:21:28;95470.88;;;27.70;47.36
20027;BME280;10174;42.688;23.344;2023-07-24T08:23:53;95462.13;;;27.92;47.05
20027;BME280;10174;42.688;23.344;2023-07-24T08:26:19;95465.09;;;28.06;46.59
20027;BME280;10174;42.688;23.344;2023-07-24T08:28:44;95448.41;;;28.25;45.16
20027;BME280;10174;42.688;23.344;2023-07-24T08:31:10;95454.41;;;28.61;43.76
20027;BME280;10174;42.688;23.344;2023-07-24T08:33:35;95444.75;;;28.78;44.06
20027;BME280;10174;42.688;23.344;2023-07-24T08:36:09;95433.66;;;28.44;43.66
20027;BME280;10174;42.688;23.344;2023-07-24T08:38:37;95425.81;;;28.47;44.05
20027;BME280;10174;42.688;23.344;2023-07-24T08:41:07;95446.59;;;28.71;43.75
20027;BME280;10174;42.688;23.344;2023-07-24T08:43:35;95441.50;;;29.10;43.14
20027;BME280;10174;42.688;23.344;2023-07-24T08:46:02;95415.63;;;29.29;42.83
20027;BME280;10174;42.688;23.344;2023-07-24T08:48:36;95416.06;;;29.83;41.70
20027;BME280;10174;42.688;23.344;2023-07-24T08:51:06;95433.56;;;30.79;39.60
20027;BME280;10174;42.688;23.344;2023-07-24T08:53:33;95431.91;;;33.36;34.62
20027;BME280;10174;42.688;23.344;2023-07-24T08:56:05;95425.13;;;33.89;33.56
20027;BME280;10174;42.688;23.344;2023-07-24T08:58:31;95414.28;;;35.02;31.56
20027;BME280;10174;42.688;23.344;2023-07-24T09:00:58;95423.97;;;36.19;29.89
20027;BME280;10174;42.688;23.344;2023-07-24T09:03:24;95414.38;;;35.22;30.86
20027;BME280;10174;42.688;23.344;2023-07-24T09:05:50;95408.28;;;36.26;29.66
20027;BME280;10174;42.688;23.344;2023-07-24T09:08:15;95427.72;;;36.93;28.70
20027;BME280;10174;42.688;23.344;2023-07-24T09:10:41;95421.63;;;35.94;29.41
20027;BME280;10174;42.688;23.344;2023-07-24T09:13:07;95423.97;;;35.48;30.43
20027;BME280;10174;42.688;23.344;2023-07-24T09:15:40;95404.44;;;35.21;30.30
20027;BME280;10174;42.688;23.344;2023-07-24T09:18:05;95416.38;;;37.00;28.80
20027;BME280;10174;42.688;23.344;2023-07-24T09:20:38;95413.56;;;37.53;27.50
20027;BME280;10174;42.688;23.344;2023-07-24T09:23:04;95414.84;;;36.59;28.75
20027;BME280;10174;42.688;23.344;2023-07-24T09:25:30;95384.03;;;36.19;28.60
20027;BME280;10174;42.688;23.344;2023-07-24T09:27:58;95393.28;;;36.96;27.59
20027;BME280;10174;42.688;23.344;2023-07-24T09:30:23;95396.28;;;36.25;27.99
20027;BME280;10174;42.688;23.344;2023-07-24T09:32:53;95387.94;;;38.17;26.42
20027;BME280;10174;42.688;23.344;2023-07-24T09:35:20;95372.75;;;37.85;26.30
20027;BME280;10174;42.688;23.344;2023-07-24T09:37:47;95384.50;;;38.26;25.75
20027;BME280;10174;42.688;23.344;2023-07-24T09:40:14;95386.00;;;38.14;25.66
20027;BME280;10174;42.688;23.344;2023-07-24T09:42:40;95369.38;;;37.28;26.70
20027;BME280;10174;42.688;23.344;2023-07-24T09:45:07;95368.41;;;37.51;26.30
20027;BME280;10174;42.688;23.344;2023-07-24T09:47:35;95290.03;;;37.64;25.40
20027;BME280;10174;42.688;23.344;2023-07-24T09:50:03;95357.13;;;38.30;26.01
20027;BME280;10174;42.688;23.344;2023-07-24T09:52:30;95336.97;;;37.60;26.35
20027;BME280;10174;42.688;23.344;2023-07-24T09:55:12;95355.38;;;38.36;25.59
20027;BME280;10174;42.688;23.344;2023-07-24T09:57:41;95337.06;;;38.74;25.13
20027;BME280;10174;42.688;23.344;2023-07-24T10:00:07;95343.81;;;37.26;26.38
20027;BME280;10174;42.688;23.344;2023-07-24T10:02:33;95279.59;;;36.86;26.77
20027;BME280;10174;42.688;23.344;2023-07-24T10:04:59;95342.47;;;38.39;26.06
20027;BME280;10174;42.688;23.344;2023-07-24T10:07:25;95327.16;;;38.69;25.34
20027;BME280;10174;42.688;23.344;2023-07-24T10:09:52;95337.72;;;38.91;24.70
20027;BME280;10174;42.688;23.344;2023-07-24T10:12:18;95340.19;;;39.40;23.43
20027;BME280;10174;42.688;23.344;2023-07-24T10:14:46;95332.91;;;39.30;22.80
20027;BME280;10174;42.688;23.344;2023-07-24T10:17:12;95318.09;;;38.23;24.07
20027;BME280;10174;42.688;23.344;2023-07-24T10:19:43;95339.84;;;38.74;23.89
20027;BME280;10174;42.688;23.344;2023-07-24T10:22:19;95324.38;;;38.69;23.71
20027;BME280;10174;42.688;23.344;2023-07-24T10:24:46;95326.47;;;39.90;23.57
20027;BME280;10174;42.688;23.344;2023-07-24T10:27:12;95257.31;;;38.20;24.34
20027;BME280;10174;42.688;23.344;2023-07-24T10:29:37;95315.38;;;38.19;25.12
20027;BME280;10174;42.688;23.344;2023-07-24T10:32:16;95310.28;;;40.70;22.43
20027;BME280;10174;42.688;23.344;2023-07-24T10:34:42;95236.25;;;40.82;22.10
20027;BME280;10174;42.688;23.344;2023-07-24T10:37:08;95305.22;;;40.55;22.57
20027;BME280;10174;42.688;23.344;2023-07-24T10:39:40;95301.56;;;42.14;20.83
20027;BME280;10174;42.688;23.344;2023-07-24T10:42:10;95296.72;;;41.09;21.99
20027;BME280;10174;42.688;23.344;2023-07-24T10:44:36;95304.78;;;39.43;24.13
20027;BME280;10174;42.688;23.344;2023-07-24T10:47:02;95294.72;;;38.68;24.79
20027;BME280;10174;42.688;23.344;2023-07-24T10:49:28;95301.13;;;38.81;25.34
20027;BME280;10174;42.688;23.344;2023-07-24T10:52:00;95303.84;;;38.17;26.29
20027;BME280;10174;42.688;23.344;2023-07-24T10:54:25;95216.78;;;36.54;26.91
20027;BME280;10174;42.688;23.344;2023-07-24T10:56:58;95251.50;;;37.68;26.45
20027;BME280;10174;42.688;23.344;2023-07-24T10:59:35;95271.41;;;37.74;26.76
20027;BME280;10174;42.688;23.344;2023-07-24T11:02:01;95192.25;;;36.25;28.22
20027;BME280;10174;42.688;23.344;2023-07-24T11:04:29;95275.03;;;36.19;28.26
20027;BME280;10174;42.688;23.344;2023-07-24T11:06:54;95269.50;;;37.21;27.32
20027;BME280;10174;42.688;23.344;2023-07-24T11:09:22;95280.19;;;37.10;26.81
20027;BME280;10174;42.688;23.344;2023-07-24T11:11:51;95269.25;;;37.32;25.14
20027;BME280;10174;42.688;23.344;2023-07-24T11:14:16;95267.47;;;38.13;24.21
20027;BME280;10174;42.688;23.344;2023-07-24T11:16:49;95273.28;;;38.06;25.10
20027;BME280;10174;42.688;23.344;2023-07-24T11:19:22;95252.44;;;36.66;25.55
20027;BME280;10174;42.688;23.344;2023-07-24T11:21:48;95253.84;;;36.58;26.37
20027;BME280;10174;42.688;23.344;2023-07-24T11:24:13;95247.28;;;36.48;27.05
20027;BME280;10174;42.688;23.344;2023-07-24T11:26:38;95263.31;;;36.28;28.10
20027;BME280;10174;42.688;23.344;2023-07-24T11:29:11;95223.09;;;37.53;25.99
20027;BME280;10174;42.688;23.344;2023-07-24T11:31:37;95234.88;;;37.32;25.65
20027;BME280;10174;42.688;23.344;2023-07-24T11:34:05;95231.13;;;37.05;24.69
20027;BME280;10174;42.688;23.344;2023-07-24T11:36:32;95221.84;;;36.43;25.77
20027;BME280;10174;42.688;23.344;2023-07-24T11:38:57;95235.63;;;35.53;26.96
20027;BME280;10174;42.688;23.344;2023-07-24T11:41:23;95237.38;;;35.87;27.28
20027;BME280;10174;42.688;23.344;2023-07-24T11:43:50;95213.03;;;35.47;28.46
20027;BME280;10174;42.688;23.344;2023-07-24T11:46:29;95226.63;;;35.22;29.64
20027;BME280;10174;42.688;23.344;2023-07-24T11:48:57;95221.34;;;34.80;29.88
20027;BME280;10174;42.688;23.344;2023-07-24T11:51:23;95228.59;;;34.47;30.30
20027;BME280;10174;42.688;23.344;2023-07-24T11:53:50;95223.69;;;33.96;31.39
20027;BME280;10174;42.688;23.344;2023-07-24T11:56:17;95229.53;;;33.75;31.83
20027;BME280;10174;42.688;23.344;2023-07-24T11:58:42;95232.00;;;33.69;32.31
20027;BME280;10174;42.688;23.344;2023-07-24T12:01:08;95204.13;;;32.93;33.32
20027;BME280;10174;42.688;23.344;2023-07-24T12:03:34;95151.75;;;32.35;33.88
20027;BME280;10174;42.688;23.344;2023-07-24T12:06:00;95217.63;;;32.91;33.78
20027;BME280;10174;42.688;23.344;2023-07-24T12:08:35;95112.53;;;32.26;34.18
20027;BME280;10174;42.688;23.344;2023-07-24T12:11:02;95196.34;;;33.18;33.31
20027;BME280;10174;42.688;23.344;2023-07-24T12:13:27;95219.81;;;33.55;32.95
20027;BME280;10174;42.688;23.344;2023-07-24T12:15:54;95225.75;;;33.58;32.88
20027;BME280;10174;42.688;23.344;2023-07-24T12:18:19;95211.38;;;33.63;32.55
20027;BME280;10174;42.688;23.344;2023-07-24T12:20:45;95209.44;;;33.22;33.30
20027;BME280;10174;42.688;23.344;2023-07-24T12:23:11;95216.66;;;33.53;33.20
20027;BME280;10174;42.688;23.344;2023-07-24T12:25:36;95153.81;;;33.22;32.14
20027;BME280;10174;42.688;23.344;2023-07-24T12:28:01;95193.84;;;33.66;32.00
20027;BME280;10174;42.688;23.344;2023-07-24T12:30:27;95196.66;;;33.97;32.11
20027;BME280;10174;42.688;23.344;2023-07-24T12:32:52;95204.13;;;34.03;31.90
20027;BME280;10174;42.688;23.344;2023-07-24T12:35:18;95196.59;;;34.00;31.83
20027;BME280;10174;42.688;23.344;2023-07-24T12:37:46;95205.59;;;33.46;31.79
20027;BME280;10174;42.688;23.344;2023-07-24T12:40:12;95187.91;;;33.26;32.06
20027;BME280;10174;42.688;23.344;2023-07-24T12:42:37;95180.41;;;33.23;32.03
20027;BME280;10174;42.688;23.344;2023-07-24T12:45:03;95188.59;;;33.37;31.70
20027;BME280;10174;42.688;23.344;2023-07-24T12:47:30;95161.06;;;33.08;32.49
20027;BME280;10174;42.688;23.344;2023-07-24T12:49:55;95168.31;;;33.36;32.37
20027;BME280;10174;42.688;23.344;2023-07-24T12:52:21;95191.50;;;33.61;32.60